sensor_id;sensor_type;location;lat;lon;timestamp;temperature;humidity
1728;DHT22;861;48.808;9.006;2022-09-17T00:02:09;11.70;99.90
1728;DHT22;861;48.808;9.006;2022-09-17T00:04:36;11.70;99.90
1728;DHT22;861;48.808;9.006;2022-09-17T00:07:02;11.70;99.90
1728;DHT22;861;48.808;9.006;2022-09-17T00:09:29;12.40;99.90
1728;DHT22;861;48.808;9.006;2022-09-17T00:11:56;11.70;99.90
1728;DHT22;861;48.808;9.006;2022-09-17T00:14:24;11.70;99.90
1728;DHT22;861;48.808;9.006;2022-09-17T00:16:51;11.70;99.90
1728;DHT22;861;48.808;9.006;2022-09-17T00:19:22;11.60;99.90
1728;DHT22;861;48.808;9.006;2022-09-17T00:21:55;11.70;99.90
1728;DHT22;861;48.808;9.006;2022-09-17T00:24:28;11.70;99.90
1728;DHT22;861;48.808;9.006;2022-09-17T00:26:55;11.60;99.90
1728;DHT22;861;48.808;9.006;2022-09-17T00:29:38;11.70;99.90
1728;DHT22;861;48.808;9.006;2022-09-17T00:32:18;11.60;99.90
1728;DHT22;861;48.808;9.006;2022-09-17T00:34:50;11.70;99.90
1728;DHT22;861;48.808;9.006;2022-09-17T00:37:19;11.80;99.90
1728;DHT22;861;48.808;9.006;2022-09-17T00:39:49;11.70;99.90
1728;DHT22;861;48.808;9.006;2022-09-17T00:42:18;11.70;99.90
1728;DHT22;861;48.808;9.006;2022-09-17T00:44:55;11.60;99.90
1728;DHT22;861;48.808;9.006;2022-09-17T00:47:56;11.90;99.90
1728;DHT22;861;48.808;9.006;2022-09-17T00:50:39;11.70;99.90
1728;DHT22;861;48.808;9.006;2022-09-17T00:53:16;12.50;99.90
1728;DHT22;861;48.808;9.006;2022-09-17T00:59:22;11.60;99.90
1728;DHT22;861;48.808;9.006;2022-09-17T01:02:21;11.60;99.90
1728;DHT22;861;48.808;9.006;2022-09-17T01:04:58;11.50;99.90
1728;DHT22;861;48.808;9.006;2022-09-17T01:15:18;11.50;99.90
1728;DHT22;861;48.808;9.006;2022-09-17T01:18:24;11.50;99.90
1728;DHT22;861;48.808;9.006;2022-09-17T01:25:36;11.40;99.90
1728;DHT22;861;48.808;9.006;2022-09-17T01:32:23;11.30;99.90
1728;DHT22;861;48.808;9.006;2022-09-17T01:36:12;11.40;99.90
1728;DHT22;861;48.808;9.006;2022-09-17T01:45:42;11.30;99.90
1728;DHT22;861;48.808;9.006;2022-09-17T01:48:39;11.30;99.90
1728;DHT22;861;48.808;9.006;2022-09-17T01:57:35;11.30;99.90
1728;DHT22;861;48.808;9.006;2022-09-17T02:00:19;11.30;99.90
1728;DHT22;861;48.808;9.006;2022-09-17T02:03:24;11.30;99.90
1728;DHT22;861;48.808;9.006;2022-09-17T02:10:47;11.60;99.90
1728;DHT22;861;48.808;9.006;2022-09-17T02:13:50;11.30;99.90
1728;DHT22;861;48.808;9.006;2022-09-17T02:16:45;10.20;99.90
1728;DHT22;861;48.808;9.006;2022-09-17T02:19:33;11.50;99.90
1728;DHT22;861;48.808;9.006;2022-09-17T02:25:37;11.50;99.90
1728;DHT22;861;48.808;9.006;2022-09-17T02:28:30;11.30;99.90
1728;DHT22;861;48.808;9.006;2022-09-17T02:31:05;11.30;99.90
1728;DHT22;861;48.808;9.006;2022-09-17T02:33:34;11.40;99.90
1728;DHT22;861;48.808;9.006;2022-09-17T02:36:30;11.30;99.90
1728;DHT22;861;48.808;9.006;2022-09-17T02:39:22;11.30;99.90
1728;DHT22;861;48.808;9.006;2022-09-17T02:42:21;11.30;99.90
1728;DHT22;861;48.808;9.006;2022-09-17T02:56:48;11.20;99.90
1728;DHT22;861;48.808;9.006;2022-09-17T03:00:14;11.20;99.90
1728;DHT22;861;48.808;9.006;2022-09-17T03:03:12;11.20;99.90
1728;DHT22;861;48.808;9.006;2022-09-17T03:05:53;12.20;99.90
1728;DHT22;861;48.808;9.006;2022-09-17T03:08:40;10.90;99.90
1728;DHT22;861;48.808;9.006;2022-09-17T03:11:10;11.10;99.90
1728;DHT22;861;48.808;9.006;2022-09-17T03:13:38;11.10;99.90
1728;DHT22;861;48.808;9.006;2022-09-17T03:16:06;11.00;99.90
1728;DHT22;861;48.808;9.006;2022-09-17T03:18:33;11.00;99.90
1728;DHT22;861;48.808;9.006;2022-09-17T03:21:05;11.00;99.90
1728;DHT22;861;48.808;9.006;2022-09-17T03:23:31;11.00;99.90
1728;DHT22;861;48.808;9.006;2022-09-17T03:26:07;11.00;99.90
1728;DHT22;861;48.808;9.006;2022-09-17T03:28:34;11.10;99.90
1728;DHT22;861;48.808;9.006;2022-09-17T03:31:00;11.00;99.90
1728;DHT22;861;48.808;9.006;2022-09-17T03:33:26;11.00;99.90
1728;DHT22;861;48.808;9.006;2022-09-17T03:35:53;11.00;99.90
1728;DHT22;861;48.808;9.006;2022-09-17T03:38:19;11.00;99.90
1728;DHT22;861;48.808;9.006;2022-09-17T03:41:03;11.00;99.90
1728;DHT22;861;48.808;9.006;2022-09-17T03:43:35;11.00;99.90
1728;DHT22;861;48.808;9.006;2022-09-17T03:46:02;11.00;99.90
1728;DHT22;861;48.808;9.006;2022-09-17T03:48:29;11.00;99.90
1728;DHT22;861;48.808;9.006;2022-09-17T03:50:55;10.90;99.90
1728;DHT22;861;48.808;9.006;2022-09-17T03:53:24;10.90;99.90
1728;DHT22;861;48.808;9.006;2022-09-17T03:56:05;10.80;99.90
1728;DHT22;861;48.808;9.006;2022-09-17T03:58:41;10.80;99.90
1728;DHT22;861;48.808;9.006;2022-09-17T04:01:11;10.70;99.90
1728;DHT22;861;48.808;9.006;2022-09-17T04:03:37;10.70;99.90
1728;DHT22;861;48.808;9.006;2022-09-17T04:06:03;10.80;99.90
1728;DHT22;861;48.808;9.006;2022-09-17T04:08:41;10.70;99.90
1728;DHT22;861;48.808;9.006;2022-09-17T04:14:27;10.80;99.90
1728;DHT22;861;48.808;9.006;2022-09-17T04:17:11;10.80;99.90
1728;DHT22;861;48.808;9.006;2022-09-17T04:20:04;10.70;99.90
1728;DHT22;861;48.808;9.006;2022-09-17T04:25:35;10.60;99.90
1728;DHT22;861;48.808;9.006;2022-09-17T04:28:02;10.60;99.90
1728;DHT22;861;48.808;9.006;2022-09-17T04:30:32;10.60;99.90
1728;DHT22;861;48.808;9.006;2022-09-17T04:33:10;10.60;99.90
1728;DHT22;861;48.808;9.006;2022-09-17T04:35:51;10.40;99.90
1728;DHT22;861;48.808;9.006;2022-09-17T04:38:19;10.50;99.90
1728;DHT22;861;48.808;9.006;2022-09-17T04:40:46;10.50;99.90
1728;DHT22;861;48.808;9.006;2022-09-17T04:43:25;10.40;99.90
1728;DHT22;861;48.808;9.006;2022-09-17T04:46:24;10.40;99.90
1728;DHT22;861;48.808;9.006;2022-09-17T04:48:51;10.40;99.90
1728;DHT22;861;48.808;9.006;2022-09-17T04:51:30;10.50;99.90
1728;DHT22;861;48.808;9.006;2022-09-17T04:54:03;10.50;99.90
1728;DHT22;861;48.808;9.006;2022-09-17T04:56:37;10.40;99.90
1728;DHT22;861;48.808;9.006;2022-09-17T04:59:03;10.30;99.90
1728;DHT22;861;48.808;9.006;2022-09-17T05:01:35;10.50;99.90
1728;DHT22;861;48.808;9.006;2022-09-17T05:04:01;10.40;99.90
1728;DHT22;861;48.808;9.006;2022-09-17T05:06:28;10.40;99.90
1728;DHT22;861;48.808;9.006;2022-09-17T05:09:28;10.40;99.90
1728;DHT22;861;48.808;9.006;2022-09-17T05:12:21;10.50;99.90
1728;DHT22;861;48.808;9.006;2022-09-17T05:14:57;10.60;99.90
1728;DHT22;861;48.808;9.006;2022-09-17T05:17:23;10.50;99.90
1728;DHT22;861;48.808;9.006;2022-09-17T05:20:30;10.60;99.90
1728;DHT22;861;48.808;9.006;2022-09-17T05:23:44;10.50;99.90
1728;DHT22;861;48.808;9.006;2022-09-17T05:26:16;10.50;99.90
1728;DHT22;861;48.808;9.006;2022-09-17T05:28:43;10.50;99.90
1728;DHT22;861;48.808;9.006;2022-09-17T05:31:12;10.50;99.90
1728;DHT22;861;48.808;9.006;2022-09-17T05:33:39;10.50;99.90
1728;DHT22;861;48.808;9.006;2022-09-17T05:38:33;10.60;99.90
1728;DHT22;861;48.808;9.006;2022-09-17T05:41:04;10.20;99.90
1728;DHT22;861;48.808;9.006;2022-09-17T05:43:32;10.50;99.90
1728;DHT22;861;48.808;9.006;2022-09-17T05:46:04;10.50;99.90
1728;DHT22;861;48.808;9.006;2022-09-17T05:48:32;10.40;99.90
1728;DHT22;861;48.808;9.006;2022-09-17T05:50:58;11.00;99.90
1728;DHT22;861;48.808;9.006;2022-09-17T05:53:25;10.50;99.90
1728;DHT22;861;48.808;9.006;2022-09-17T05:56:04;10.50;99.90
1728;DHT22;861;48.808;9.006;2022-09-17T05:59:09;10.70;99.90
1728;DHT22;861;48.808;9.006;2022-09-17T06:01:35;10.60;99.90
1728;DHT22;861;48.808;9.006;2022-09-17T06:04:01;10.00;99.90
1728;DHT22;861;48.808;9.006;2022-09-17T06:06:29;10.70;99.90
1728;DHT22;861;48.808;9.006;2022-09-17T06:09:19;10.90;99.90
1728;DHT22;861;48.808;9.006;2022-09-17T06:11:58;10.80;99.90
1728;DHT22;861;48.808;9.006;2022-09-17T06:14:25;10.70;99.90
1728;DHT22;861;48.808;9.006;2022-09-17T06:16:55;10.90;99.90
1728;DHT22;861;48.808;9.006;2022-09-17T06:19:36;10.90;99.90
1728;DHT22;861;48.808;9.006;2022-09-17T06:22:05;10.90;99.90
1728;DHT22;861;48.808;9.006;2022-09-17T06:26:58;9.70;99.90
1728;DHT22;861;48.808;9.006;2022-09-17T06:29:28;10.80;99.90
1728;DHT22;861;48.808;9.006;2022-09-17T06:31:59;10.90;99.90
1728;DHT22;861;48.808;9.006;2022-09-17T06:34:27;10.70;99.90
1728;DHT22;861;48.808;9.006;2022-09-17T06:37:09;10.80;99.90
1728;DHT22;861;48.808;9.006;2022-09-17T06:45:02;10.80;99.90
1728;DHT22;861;48.808;9.006;2022-09-17T06:47:28;10.80;99.90
1728;DHT22;861;48.808;9.006;2022-09-17T06:49:58;10.80;99.90
1728;DHT22;861;48.808;9.006;2022-09-17T06:52:29;10.80;99.90
1728;DHT22;861;48.808;9.006;2022-09-17T06:54:55;10.70;99.90
1728;DHT22;861;48.808;9.006;2022-09-17T06:57:22;10.70;99.90
1728;DHT22;861;48.808;9.006;2022-09-17T06:59:48;10.90;99.90
1728;DHT22;861;48.808;9.006;2022-09-17T07:02:14;10.90;99.90
1728;DHT22;861;48.808;9.006;2022-09-17T07:08:06;11.70;99.90
1728;DHT22;861;48.808;9.006;2022-09-17T07:10:32;11.60;99.90
1728;DHT22;861;48.808;9.006;2022-09-17T07:12:59;11.20;99.90
1728;DHT22;861;48.808;9.006;2022-09-17T07:15:25;11.00;99.90
1728;DHT22;861;48.808;9.006;2022-09-17T07:17:51;10.80;99.90
1728;DHT22;861;48.808;9.006;2022-09-17T07:20:18;10.90;99.90
1728;DHT22;861;48.808;9.006;2022-09-17T07:22:44;10.90;99.90
1728;DHT22;861;48.808;9.006;2022-09-17T07:25:11;10.90;99.90
1728;DHT22;861;48.808;9.006;2022-09-17T07:27:38;10.90;99.90
1728;DHT22;861;48.808;9.006;2022-09-17T07:30:05;10.80;99.90
1728;DHT22;861;48.808;9.006;2022-09-17T07:32:32;10.80;99.90
1728;DHT22;861;48.808;9.006;2022-09-17T07:34:58;10.40;99.90
1728;DHT22;861;48.808;9.006;2022-09-17T07:37:24;10.60;99.90
1728;DHT22;861;48.808;9.006;2022-09-17T07:39:50;10.70;99.90
1728;DHT22;861;48.808;9.006;2022-09-17T07:42:16;10.60;99.90
1728;DHT22;861;48.808;9.006;2022-09-17T07:44:42;10.60;99.90
1728;DHT22;861;48.808;9.006;2022-09-17T07:47:10;10.70;99.90
1728;DHT22;861;48.808;9.006;2022-09-17T07:49:36;11.30;99.90
1728;DHT22;861;48.808;9.006;2022-09-17T07:52:03;10.80;99.90
1728;DHT22;861;48.808;9.006;2022-09-17T07:54:35;10.80;99.90
1728;DHT22;861;48.808;9.006;2022-09-17T07:57:02;10.80;99.90
1728;DHT22;861;48.808;9.006;2022-09-17T07:59:29;10.80;99.90
1728;DHT22;861;48.808;9.006;2022-09-17T08:01:56;10.90;99.90
1728;DHT22;861;48.808;9.006;2022-09-17T08:04:22;11.00;99.90
1728;DHT22;861;48.808;9.006;2022-09-17T08:06:48;11.10;99.90
1728;DHT22;861;48.808;9.006;2022-09-17T08:09:16;11.10;99.90
1728;DHT22;861;48.808;9.006;2022-09-17T08:11:44;10.90;99.90
1728;DHT22;861;48.808;9.006;2022-09-17T08:14:14;11.10;99.90
1728;DHT22;861;48.808;9.006;2022-09-17T08:16:41;11.20;99.90
1728;DHT22;861;48.808;9.006;2022-09-17T08:19:08;11.10;99.90
1728;DHT22;861;48.808;9.006;2022-09-17T08:21:37;11.20;99.90
1728;DHT22;861;48.808;9.006;2022-09-17T08:24:03;11.30;99.90
1728;DHT22;861;48.808;9.006;2022-09-17T08:26:30;11.20;99.90
1728;DHT22;861;48.808;9.006;2022-09-17T08:29:04;11.30;99.90
1728;DHT22;861;48.808;9.006;2022-09-17T08:31:30;11.40;99.90
1728;DHT22;861;48.808;9.006;2022-09-17T08:33:58;11.30;99.90
1728;DHT22;861;48.808;9.006;2022-09-17T08:36:25;11.00;99.90
1728;DHT22;861;48.808;9.006;2022-09-17T08:38:55;11.50;99.90
1728;DHT22;861;48.808;9.006;2022-09-17T08:41:47;11.50;99.90
1728;DHT22;861;48.808;9.006;2022-09-17T08:50:39;11.90;99.90
1728;DHT22;861;48.808;9.006;2022-09-17T08:56:20;12.10;99.90
1728;DHT22;861;48.808;9.006;2022-09-17T08:59:26;12.10;99.90
1728;DHT22;861;48.808;9.006;2022-09-17T09:05:47;12.20;99.90
1728;DHT22;861;48.808;9.006;2022-09-17T09:11:47;12.60;99.90
1728;DHT22;861;48.808;9.006;2022-09-17T09:17:26;12.60;99.90
1728;DHT22;861;48.808;9.006;2022-09-17T09:20:04;12.60;99.90
1728;DHT22;861;48.808;9.006;2022-09-17T09:22:51;12.70;99.90
1728;DHT22;861;48.808;9.006;2022-09-17T09:25:25;12.80;99.90
1728;DHT22;861;48.808;9.006;2022-09-17T09:38:23;13.20;99.90
1728;DHT22;861;48.808;9.006;2022-09-17T09:41:12;13.20;99.90
1728;DHT22;861;48.808;9.006;2022-09-17T09:43:50;13.10;99.90
1728;DHT22;861;48.808;9.006;2022-09-17T09:50:41;12.90;99.90
1728;DHT22;861;48.808;9.006;2022-09-17T09:53:52;12.90;99.90
1728;DHT22;861;48.808;9.006;2022-09-17T09:59:33;13.30;99.90
1728;DHT22;861;48.808;9.006;2022-09-17T10:02:03;12.80;99.90
1728;DHT22;861;48.808;9.006;2022-09-17T10:04:30;13.30;99.90
1728;DHT22;861;48.808;9.006;2022-09-17T10:07:10;13.90;99.90
1728;DHT22;861;48.808;9.006;2022-09-17T10:09:44;13.50;99.90
1728;DHT22;861;48.808;9.006;2022-09-17T10:14:42;14.10;99.90
1728;DHT22;861;48.808;9.006;2022-09-17T10:17:26;14.50;99.90
1728;DHT22;861;48.808;9.006;2022-09-17T10:22:37;14.40;99.90
1728;DHT22;861;48.808;9.006;2022-09-17T10:25:33;14.40;99.90
1728;DHT22;861;48.808;9.006;2022-09-17T10:28:11;14.40;99.90
1728;DHT22;861;48.808;9.006;2022-09-17T10:31:06;14.30;99.90
1728;DHT22;861;48.808;9.006;2022-09-17T10:36:44;14.50;99.90
1728;DHT22;861;48.808;9.006;2022-09-17T10:39:36;14.70;99.90
1728;DHT22;861;48.808;9.006;2022-09-17T10:47:23;14.90;99.90
1728;DHT22;861;48.808;9.006;2022-09-17T10:50:22;15.40;99.90
1728;DHT22;861;48.808;9.006;2022-09-17T10:53:03;15.40;99.90
1728;DHT22;861;48.808;9.006;2022-09-17T10:56:16;14.90;99.90
1728;DHT22;861;48.808;9.006;2022-09-17T11:02:55;15.20;99.90
1728;DHT22;861;48.808;9.006;2022-09-17T11:06:42;15.10;99.90
1728;DHT22;861;48.808;9.006;2022-09-17T11:13:19;15.10;99.90
1728;DHT22;861;48.808;9.006;2022-09-17T11:20:03;15.30;99.90
1728;DHT22;861;48.808;9.006;2022-09-17T11:26:42;15.70;99.90
1728;DHT22;861;48.808;9.006;2022-09-17T11:33:07;15.70;99.90
1728;DHT22;861;48.808;9.006;2022-09-17T11:35:58;15.90;99.90
1728;DHT22;861;48.808;9.006;2022-09-17T11:38:50;16.30;99.90
1728;DHT22;861;48.808;9.006;2022-09-17T11:41:38;16.60;99.90
1728;DHT22;861;48.808;9.006;2022-09-17T11:44:26;16.80;99.90
1728;DHT22;861;48.808;9.006;2022-09-17T11:47:18;17.00;99.90
1728;DHT22;861;48.808;9.006;2022-09-17T11:50:54;17.10;99.90
1728;DHT22;861;48.808;9.006;2022-09-17T11:53:53;16.80;99.90
1728;DHT22;861;48.808;9.006;2022-09-17T11:56:50;16.50;99.90
1728;DHT22;861;48.808;9.006;2022-09-17T11:59:30;16.30;99.90
1728;DHT22;861;48.808;9.006;2022-09-17T12:05:01;15.80;99.90
1728;DHT22;861;48.808;9.006;2022-09-17T12:14:30;15.00;99.90
1728;DHT22;861;48.808;9.006;2022-09-17T12:17:48;14.80;99.90
1728;DHT22;861;48.808;9.006;2022-09-17T12:20:42;14.70;99.90
1728;DHT22;861;48.808;9.006;2022-09-17T12:23:37;14.70;99.90
1728;DHT22;861;48.808;9.006;2022-09-17T12:52:09;12.80;99.90
1728;DHT22;861;48.808;9.006;2022-09-17T12:59:15;12.40;99.90
1728;DHT22;861;48.808;9.006;2022-09-17T13:01:59;12.20;99.90
1728;DHT22;861;48.808;9.006;2022-09-17T13:12:06;11.90;99.90
1728;DHT22;861;48.808;9.006;2022-09-17T13:15:32;11.90;99.90
1728;DHT22;861;48.808;9.006;2022-09-17T13:18:16;12.00;99.90
1728;DHT22;861;48.808;9.006;2022-09-17T13:21:12;12.00;99.90
1728;DHT22;861;48.808;9.006;2022-09-17T13:23:50;12.10;99.90
1728;DHT22;861;48.808;9.006;2022-09-17T13:29:02;12.20;99.90
1728;DHT22;861;48.808;9.006;2022-09-17T13:36:51;13.10;99.90
1728;DHT22;861;48.808;9.006;2022-09-17T13:39:49;13.40;99.90
1728;DHT22;861;48.808;9.006;2022-09-17T13:42:31;13.60;99.90
1728;DHT22;861;48.808;9.006;2022-09-17T13:45:17;13.70;99.90
1728;DHT22;861;48.808;9.006;2022-09-17T13:48:02;13.70;99.90
1728;DHT22;861;48.808;9.006;2022-09-17T13:50:40;13.90;99.90
1728;DHT22;861;48.808;9.006;2022-09-17T13:55:55;14.40;99.90
1728;DHT22;861;48.808;9.006;2022-09-17T13:58:31;14.70;99.90
1728;DHT22;861;48.808;9.006;2022-09-17T14:01:06;14.90;99.90
1728;DHT22;861;48.808;9.006;2022-09-17T14:22:23;15.00;99.90
1728;DHT22;861;48.808;9.006;2022-09-17T14:24:53;15.40;99.90
1728;DHT22;861;48.808;9.006;2022-09-17T14:28:00;15.60;99.90
1728;DHT22;861;48.808;9.006;2022-09-17T14:30:42;15.90;99.90
1728;DHT22;861;48.808;9.006;2022-09-17T14:33:19;15.90;99.90
1728;DHT22;861;48.808;9.006;2022-09-17T14:36:07;15.80;99.90
1728;DHT22;861;48.808;9.006;2022-09-17T14:38:54;15.40;99.90
1728;DHT22;861;48.808;9.006;2022-09-17T14:41:34;15.10;99.90
1728;DHT22;861;48.808;9.006;2022-09-17T14:44:19;15.00;99.90
1728;DHT22;861;48.808;9.006;2022-09-17T14:47:10;15.10;99.90
1728;DHT22;861;48.808;9.006;2022-09-17T14:49:43;15.20;99.90
1728;DHT22;861;48.808;9.006;2022-09-17T14:52:30;15.40;99.90
1728;DHT22;861;48.808;9.006;2022-09-17T14:55:21;15.60;99.90
1728;DHT22;861;48.808;9.006;2022-09-17T14:57:58;15.60;99.90
1728;DHT22;861;48.808;9.006;2022-09-17T15:00:34;15.50;99.90
1728;DHT22;861;48.808;9.006;2022-09-17T15:03:03;15.20;99.90
1728;DHT22;861;48.808;9.006;2022-09-17T15:05:36;16.20;99.90
1728;DHT22;861;48.808;9.006;2022-09-17T15:08:17;14.90;99.90
1728;DHT22;861;48.808;9.006;2022-09-17T15:11:00;14.80;99.90
1728;DHT22;861;48.808;9.006;2022-09-17T15:13:48;14.70;99.90
1728;DHT22;861;48.808;9.006;2022-09-17T15:16:25;14.20;99.90
1728;DHT22;861;48.808;9.006;2022-09-17T15:18:58;14.40;99.90
1728;DHT22;861;48.808;9.006;2022-09-17T15:21:44;14.30;99.90
1728;DHT22;861;48.808;9.006;2022-09-17T15:24:54;14.20;99.90
1728;DHT22;861;48.808;9.006;2022-09-17T15:27:42;14.20;99.90
1728;DHT22;861;48.808;9.006;2022-09-17T15:30:17;14.00;99.90
1728;DHT22;861;48.808;9.006;2022-09-17T15:32:58;14.00;99.90
1728;DHT22;861;48.808;9.006;2022-09-17T15:35:32;14.00;99.90
1728;DHT22;861;48.808;9.006;2022-09-17T15:38:03;14.00;99.90
1728;DHT22;861;48.808;9.006;2022-09-17T15:40:52;13.90;99.90
1728;DHT22;861;48.808;9.006;2022-09-17T15:43:25;14.00;99.90
1728;DHT22;861;48.808;9.006;2022-09-17T15:45:55;15.00;99.90
1728;DHT22;861;48.808;9.006;2022-09-17T15:50:59;14.00;99.90
1728;DHT22;861;48.808;9.006;2022-09-17T15:53:31;13.90;99.90
1728;DHT22;861;48.808;9.006;2022-09-17T15:56:16;14.00;99.90
1728;DHT22;861;48.808;9.006;2022-09-17T15:58:58;12.70;99.90
1728;DHT22;861;48.808;9.006;2022-09-17T16:01:53;14.60;99.90
1728;DHT22;861;48.808;9.006;2022-09-17T16:04:33;13.80;99.90
1728;DHT22;861;48.808;9.006;2022-09-17T16:07:28;13.60;99.90
1728;DHT22;861;48.808;9.006;2022-09-17T16:09:55;13.60;99.90
1728;DHT22;861;48.808;9.006;2022-09-17T16:12:26;14.00;99.90
1728;DHT22;861;48.808;9.006;2022-09-17T16:14:59;13.90;99.90
1728;DHT22;861;48.808;9.006;2022-09-17T16:20:25;13.90;99.90
1728;DHT22;861;48.808;9.006;2022-09-17T16:22:52;14.00;99.90
1728;DHT22;861;48.808;9.006;2022-09-17T16:25:25;13.90;99.90
1728;DHT22;861;48.808;9.006;2022-09-17T16:28:02;13.90;99.90
1728;DHT22;861;48.808;9.006;2022-09-17T16:30:35;13.80;99.90
1728;DHT22;861;48.808;9.006;2022-09-17T16:33:02;13.80;99.90
1728;DHT22;861;48.808;9.006;2022-09-17T16:35:30;13.70;99.90
1728;DHT22;861;48.808;9.006;2022-09-17T16:37:56;13.70;99.90
1728;DHT22;861;48.808;9.006;2022-09-17T16:42:59;13.60;99.90
1728;DHT22;861;48.808;9.006;2022-09-17T16:45:29;13.50;99.90
1728;DHT22;861;48.808;9.006;2022-09-17T16:47:57;13.50;99.90
1728;DHT22;861;48.808;9.006;2022-09-17T16:50:23;13.40;99.90
1728;DHT22;861;48.808;9.006;2022-09-17T16:52:51;13.40;99.90
1728;DHT22;861;48.808;9.006;2022-09-17T16:55:18;13.40;99.90
1728;DHT22;861;48.808;9.006;2022-09-17T16:57:45;13.40;99.90
1728;DHT22;861;48.808;9.006;2022-09-17T17:00:16;13.40;99.90
1728;DHT22;861;48.808;9.006;2022-09-17T17:02:56;13.20;99.90
1728;DHT22;861;48.808;9.006;2022-09-17T17:05:25;13.00;99.90
1728;DHT22;861;48.808;9.006;2022-09-17T17:07:52;12.80;99.90
1728;DHT22;861;48.808;9.006;2022-09-17T17:10:22;13.30;99.90
1728;DHT22;861;48.808;9.006;2022-09-17T17:12:51;12.60;99.90
1728;DHT22;861;48.808;9.006;2022-09-17T17:15:17;12.60;99.90
1728;DHT22;861;48.808;9.006;2022-09-17T17:17:44;12.60;99.90
1728;DHT22;861;48.808;9.006;2022-09-17T17:20:10;12.60;99.90
1728;DHT22;861;48.808;9.006;2022-09-17T17:22:42;13.80;99.90
1728;DHT22;861;48.808;9.006;2022-09-17T17:25:12;12.00;99.90
1728;DHT22;861;48.808;9.006;2022-09-17T17:27:40;12.40;99.90
1728;DHT22;861;48.808;9.006;2022-09-17T17:30:10;12.40;99.90
1728;DHT22;861;48.808;9.006;2022-09-17T17:32:42;12.30;99.90
1728;DHT22;861;48.808;9.006;2022-09-17T17:35:10;12.30;99.90
1728;DHT22;861;48.808;9.006;2022-09-17T17:37:36;12.30;99.90
1728;DHT22;861;48.808;9.006;2022-09-17T17:40:03;12.30;99.90
1728;DHT22;861;48.808;9.006;2022-09-17T17:42:35;13.00;99.90
1728;DHT22;861;48.808;9.006;2022-09-17T17:45:09;12.10;99.90
1728;DHT22;861;48.808;9.006;2022-09-17T17:47:35;11.80;99.90
1728;DHT22;861;48.808;9.006;2022-09-17T17:50:03;11.90;99.90
1728;DHT22;861;48.808;9.006;2022-09-17T17:52:29;11.70;99.90
1728;DHT22;861;48.808;9.006;2022-09-17T17:54:56;11.70;99.90
1728;DHT22;861;48.808;9.006;2022-09-17T17:57:22;11.70;99.90
1728;DHT22;861;48.808;9.006;2022-09-17T17:59:49;11.00;99.90
1728;DHT22;861;48.808;9.006;2022-09-17T18:02:15;11.60;99.90
1728;DHT22;861;48.808;9.006;2022-09-17T18:04:41;11.50;99.90
1728;DHT22;861;48.808;9.006;2022-09-17T18:07:07;11.50;99.90
1728;DHT22;861;48.808;9.006;2022-09-17T18:09:33;11.50;99.90
1728;DHT22;861;48.808;9.006;2022-09-17T18:12:00;11.50;99.90
1728;DHT22;861;48.808;9.006;2022-09-17T18:14:26;11.50;99.90
1728;DHT22;861;48.808;9.006;2022-09-17T18:16:52;11.40;99.90
1728;DHT22;861;48.808;9.006;2022-09-17T18:19:19;11.50;99.90
1728;DHT22;861;48.808;9.006;2022-09-17T18:21:45;11.20;99.90
1728;DHT22;861;48.808;9.006;2022-09-17T18:24:11;10.20;99.90
1728;DHT22;861;48.808;9.006;2022-09-17T18:26:37;11.40;99.90
1728;DHT22;861;48.808;9.006;2022-09-17T18:29:03;11.30;99.90
1728;DHT22;861;48.808;9.006;2022-09-17T18:31:33;11.40;99.90
1728;DHT22;861;48.808;9.006;2022-09-17T18:34:07;11.40;99.90
1728;DHT22;861;48.808;9.006;2022-09-17T18:36:38;11.40;99.90
1728;DHT22;861;48.808;9.006;2022-09-17T18:39:11;11.40;99.90
1728;DHT22;861;48.808;9.006;2022-09-17T18:41:40;11.50;99.90
1728;DHT22;861;48.808;9.006;2022-09-17T18:44:08;11.50;99.90
1728;DHT22;861;48.808;9.006;2022-09-17T18:46:36;11.50;99.90
1728;DHT22;861;48.808;9.006;2022-09-17T18:49:07;11.60;99.90
1728;DHT22;861;48.808;9.006;2022-09-17T18:51:33;11.50;99.90
1728;DHT22;861;48.808;9.006;2022-09-17T18:54:00;11.50;99.90
1728;DHT22;861;48.808;9.006;2022-09-17T18:56:30;11.50;99.90
1728;DHT22;861;48.808;9.006;2022-09-17T18:59:01;11.70;99.90
1728;DHT22;861;48.808;9.006;2022-09-17T19:01:30;11.70;99.90
1728;DHT22;861;48.808;9.006;2022-09-17T19:03:58;11.90;99.90
1728;DHT22;861;48.808;9.006;2022-09-17T19:06:26;11.30;99.90
1728;DHT22;861;48.808;9.006;2022-09-17T19:08:58;11.00;99.90
1728;DHT22;861;48.808;9.006;2022-09-17T19:11:26;10.90;99.90
1728;DHT22;861;48.808;9.006;2022-09-17T19:13:53;10.80;99.90
1728;DHT22;861;48.808;9.006;2022-09-17T19:16:19;10.70;99.90
1728;DHT22;861;48.808;9.006;2022-09-17T19:18:45;10.60;99.90
1728;DHT22;861;48.808;9.006;2022-09-17T19:21:15;10.70;99.90
1728;DHT22;861;48.808;9.006;2022-09-17T19:23:49;10.50;99.90
1728;DHT22;861;48.808;9.006;2022-09-17T19:26:24;10.40;99.90
1728;DHT22;861;48.808;9.006;2022-09-17T19:28:54;9.20;99.90
1728;DHT22;861;48.808;9.006;2022-09-17T19:31:26;10.60;99.90
1728;DHT22;861;48.808;9.006;2022-09-17T19:33:56;10.60;99.90
1728;DHT22;861;48.808;9.006;2022-09-17T19:36:23;10.60;99.90
1728;DHT22;861;48.808;9.006;2022-09-17T19:38:51;10.60;99.90
1728;DHT22;861;48.808;9.006;2022-09-17T19:41:20;10.80;99.90
1728;DHT22;861;48.808;9.006;2022-09-17T19:43:52;10.50;99.90
1728;DHT22;861;48.808;9.006;2022-09-17T19:46:25;10.50;99.90
1728;DHT22;861;48.808;9.006;2022-09-17T19:48:55;10.40;99.90
1728;DHT22;861;48.808;9.006;2022-09-17T19:51:26;10.30;99.90
1728;DHT22;861;48.808;9.006;2022-09-17T19:53:55;10.30;99.90
1728;DHT22;861;48.808;9.006;2022-09-17T19:56:25;10.30;99.90
1728;DHT22;861;48.808;9.006;2022-09-17T19:58:52;10.40;99.90
1728;DHT22;861;48.808;9.006;2022-09-17T20:01:19;10.30;99.90
1728;DHT22;861;48.808;9.006;2022-09-17T20:03:46;10.20;99.90
1728;DHT22;861;48.808;9.006;2022-09-17T20:06:16;10.20;99.90
1728;DHT22;861;48.808;9.006;2022-09-17T20:08:53;10.00;99.90
1728;DHT22;861;48.808;9.006;2022-09-17T20:11:22;10.20;99.90
1728;DHT22;861;48.808;9.006;2022-09-17T20:14:00;10.10;99.90
1728;DHT22;861;48.808;9.006;2022-09-17T20:16:32;10.00;99.90
1728;DHT22;861;48.808;9.006;2022-09-17T20:19:00;10.10;99.90
1728;DHT22;861;48.808;9.006;2022-09-17T20:21:29;9.90;99.90
1728;DHT22;861;48.808;9.006;2022-09-17T20:23:57;10.00;99.90
1728;DHT22;861;48.808;9.006;2022-09-17T20:26:27;9.90;99.90
1728;DHT22;861;48.808;9.006;2022-09-17T20:31:24;10.00;99.90
1728;DHT22;861;48.808;9.006;2022-09-17T20:33:59;9.90;99.90
1728;DHT22;861;48.808;9.006;2022-09-17T20:36:31;9.90;99.90
1728;DHT22;861;48.808;9.006;2022-09-17T20:39:02;10.00;99.90
1728;DHT22;861;48.808;9.006;2022-09-17T20:41:31;10.00;99.90
1728;DHT22;861;48.808;9.006;2022-09-17T20:46:26;9.40;99.90
1728;DHT22;861;48.808;9.006;2022-09-17T20:48:53;10.20;99.90
1728;DHT22;861;48.808;9.006;2022-09-17T20:51:26;9.90;99.90
1728;DHT22;861;48.808;9.006;2022-09-17T20:53:55;10.70;99.90
1728;DHT22;861;48.808;9.006;2022-09-17T20:56:30;10.10;99.90
1728;DHT22;861;48.808;9.006;2022-09-17T20:59:05;10.30;99.90
1728;DHT22;861;48.808;9.006;2022-09-17T21:01:50;10.70;99.90
1728;DHT22;861;48.808;9.006;2022-09-17T21:04:20;10.10;99.90
1728;DHT22;861;48.808;9.006;2022-09-17T21:06:52;10.20;99.90